sensor_id;sensor_type;location;lat;lon;timestamp;P1;durP1;ratioP1;P2;durP2;ratioP2
80891;SDS011;70343;51.530;5.050;2023-06-10T00:00:35;8.80;;;7.88;;
80891;SDS011;70343;51.530;5.050;2023-06-10T00:03:01;9.73;;;7.57;;
80891;SDS011;70343;51.530;5.050;2023-06-10T00:05:27;8.73;;;8.02;;
80891;SDS011;70343;51.530;5.050;2023-06-10T00:07:55;9.70;;;7.95;;
80891;SDS011;70343;51.530;5.050;2023-06-10T00:10:21;8.35;;;7.63;;
80891;SDS011;70343;51.530;5.050;2023-06-10T00:12:47;9.10;;;7.30;;
80891;SDS011;70343;51.530;5.050;2023-06-10T00:15:13;8.70;;;7.80;;
80891;SDS011;70343;51.530;5.050;2023-06-10T00:17:39;8.38;;;7.57;;
80891;SDS011;70343;51.530;5.050;2023-06-10T00:20:08;8.00;;;7.38;;
80891;SDS011;70343;51.530;5.050;2023-06-10T00:22:37;8.48;;;7.68;;
80891;SDS011;70343;51.530;5.050;2023-06-10T00:25:07;9.60;;;8.70;;
80891;SDS011;70343;51.530;5.050;2023-06-10T00:27:34;8.45;;;7.72;;
80891;SDS011;70343;51.530;5.050;2023-06-10T00:30:04;9.38;;;8.57;;
80891;SDS011;70343;51.530;5.050;2023-06-10T00:32:35;8.68;;;7.88;;
80891;SDS011;70343;51.530;5.050;2023-06-10T00:35:02;8.25;;;7.45;;
80891;SDS011;70343;51.530;5.050;2023-06-10T00:37:30;8.60;;;7.90;;
80891;SDS011;70343;51.530;5.050;2023-06-10T00:39:56;8.35;;;7.55;;
80891;SDS011;70343;51.530;5.050;2023-06-10T00:42:21;9.98;;;9.07;;
80891;SDS011;70343;51.530;5.050;2023-06-10T00:44:53;10.35;;;8.27;;
80891;SDS011;70343;51.530;5.050;2023-06-10T00:47:19;9.10;;;8.30;;
80891;SDS011;70343;51.530;5.050;2023-06-10T00:49:46;8.50;;;7.70;;
80891;SDS011;70343;51.530;5.050;2023-06-10T00:52:12;8.50;;;7.53;;
80891;SDS011;70343;51.530;5.050;2023-06-10T00:54:41;10.20;;;8.80;;
80891;SDS011;70343;51.530;5.050;2023-06-10T00:57:07;9.15;;;8.23;;
80891;SDS011;70343;51.530;5.050;2023-06-10T00:59:34;8.50;;;7.30;;
80891;SDS011;70343;51.530;5.050;2023-06-10T01:02:00;8.25;;;7.63;;
80891;SDS011;70343;51.530;5.050;2023-06-10T01:04:28;8.57;;;7.80;;
80891;SDS011;70343;51.530;5.050;2023-06-10T01:09:51;8.75;;;7.90;;
80891;SDS011;70343;51.530;5.050;2023-06-10T01:15:19;9.60;;;7.97;;
80891;SDS011;70343;51.530;5.050;2023-06-10T01:17:54;8.23;;;7.53;;
80891;SDS011;70343;51.530;5.050;2023-06-10T01:20:29;8.73;;;7.93;;
80891;SDS011;70343;51.530;5.050;2023-06-10T01:25:24;8.50;;;7.72;;
80891;SDS011;70343;51.530;5.050;2023-06-10T01:30:55;8.35;;;7.65;;
80891;SDS011;70343;51.530;5.050;2023-06-10T01:33:29;9.40;;;8.50;;
80891;SDS011;70343;51.530;5.050;2023-06-10T01:35:59;8.57;;;7.55;;
80891;SDS011;70343;51.530;5.050;2023-06-10T01:38:28;9.30;;;8.52;;
80891;SDS011;70343;51.530;5.050;2023-06-10T01:41:00;8.77;;;8.00;;
80891;SDS011;70343;51.530;5.050;2023-06-10T01:43:27;8.77;;;7.97;;
80891;SDS011;70343;51.530;5.050;2023-06-10T01:45:52;8.30;;;7.55;;
80891;SDS011;70343;51.530;5.050;2023-06-10T01:48:18;10.57;;;8.95;;
80891;SDS011;70343;51.530;5.050;2023-06-10T01:50:44;8.60;;;7.93;;
80891;SDS011;70343;51.530;5.050;2023-06-10T01:53:10;8.98;;;8.18;;
80891;SDS011;70343;51.530;5.050;2023-06-10T01:55:36;8.98;;;8.20;;
80891;SDS011;70343;51.530;5.050;2023-06-10T01:58:01;9.18;;;8.38;;
80891;SDS011;70343;51.530;5.050;2023-06-10T02:00:27;9.45;;;8.55;;
80891;SDS011;70343;51.530;5.050;2023-06-10T02:02:53;8.43;;;7.47;;
80891;SDS011;70343;51.530;5.050;2023-06-10T02:05:19;9.82;;;8.93;;
80891;SDS011;70343;51.530;5.050;2023-06-10T02:07:44;9.20;;;8.30;;
80891;SDS011;70343;51.530;5.050;2023-06-10T02:10:10;9.10;;;8.20;;
80891;SDS011;70343;51.530;5.050;2023-06-10T02:12:35;8.95;;;8.10;;
80891;SDS011;70343;51.530;5.050;2023-06-10T02:15:01;8.15;;;7.45;;
80891;SDS011;70343;51.530;5.050;2023-06-10T02:17:27;9.85;;;8.82;;
80891;SDS011;70343;51.530;5.050;2023-06-10T02:19:53;8.98;;;8.10;;
80891;SDS011;70343;51.530;5.050;2023-06-10T02:22:20;9.98;;;8.00;;
80891;SDS011;70343;51.530;5.050;2023-06-10T02:24:46;9.30;;;8.40;;
80891;SDS011;70343;51.530;5.050;2023-06-10T02:27:12;9.48;;;8.30;;
80891;SDS011;70343;51.530;5.050;2023-06-10T02:29:38;8.73;;;8.02;;
80891;SDS011;70343;51.530;5.050;2023-06-10T02:32:04;8.55;;;7.75;;
80891;SDS011;70343;51.530;5.050;2023-06-10T02:34:30;8.80;;;7.38;;
80891;SDS011;70343;51.530;5.050;2023-06-10T02:36:57;9.80;;;8.90;;
80891;SDS011;70343;51.530;5.050;2023-06-10T02:39:23;7.85;;;7.10;;
80891;SDS011;70343;51.530;5.050;2023-06-10T02:41:49;8.43;;;7.65;;
80891;SDS011;70343;51.530;5.050;2023-06-10T02:44:16;9.10;;;8.30;;
80891;SDS011;70343;51.530;5.050;2023-06-10T02:46:43;9.45;;;8.65;;
80891;SDS011;70343;51.530;5.050;2023-06-10T02:49:10;10.23;;;8.75;;
80891;SDS011;70343;51.530;5.050;2023-06-10T02:51:36;9.38;;;8.45;;
80891;SDS011;70343;51.530;5.050;2023-06-10T02:54:02;9.73;;;8.73;;
80891;SDS011;70343;51.530;5.050;2023-06-10T02:56:28;9.00;;;8.13;;
80891;SDS011;70343;51.530;5.050;2023-06-10T02:58:57;8.63;;;7.88;;
80891;SDS011;70343;51.530;5.050;2023-06-10T03:01:24;9.40;;;8.50;;
80891;SDS011;70343;51.530;5.050;2023-06-10T03:04:04;10.52;;;9.63;;
80891;SDS011;70343;51.530;5.050;2023-06-10T03:06:31;9.93;;;8.20;;
80891;SDS011;70343;51.530;5.050;2023-06-10T03:09:07;8.48;;;7.78;;
80891;SDS011;70343;51.530;5.050;2023-06-10T03:11:33;8.90;;;8.10;;
80891;SDS011;70343;51.530;5.050;2023-06-10T03:13:59;9.80;;;8.90;;
80891;SDS011;70343;51.530;5.050;2023-06-10T03:16:26;10.38;;;9.38;;
80891;SDS011;70343;51.530;5.050;2023-06-10T03:18:52;10.93;;;9.48;;
80891;SDS011;70343;51.530;5.050;2023-06-10T03:21:18;10.50;;;9.38;;
80891;SDS011;70343;51.530;5.050;2023-06-10T03:23:44;10.63;;;8.82;;
80891;SDS011;70343;51.530;5.050;2023-06-10T03:26:10;10.98;;;9.43;;
80891;SDS011;70343;51.530;5.050;2023-06-10T03:28:40;10.45;;;9.40;;
80891;SDS011;70343;51.530;5.050;2023-06-10T03:31:07;10.07;;;9.27;;
80891;SDS011;70343;51.530;5.050;2023-06-10T03:33:32;8.68;;;7.95;;
80891;SDS011;70343;51.530;5.050;2023-06-10T03:35:58;11.52;;;10.13;;
80891;SDS011;70343;51.530;5.050;2023-06-10T03:38:24;11.50;;;10.23;;
80891;SDS011;70343;51.530;5.050;2023-06-10T03:40:50;10.43;;;9.15;;
80891;SDS011;70343;51.530;5.050;2023-06-10T03:43:16;10.68;;;9.57;;
80891;SDS011;70343;51.530;5.050;2023-06-10T03:45:42;10.45;;;9.05;;
80891;SDS011;70343;51.530;5.050;2023-06-10T03:48:09;12.05;;;9.80;;
80891;SDS011;70343;51.530;5.050;2023-06-10T03:50:42;11.52;;;10.32;;
80891;SDS011;70343;51.530;5.050;2023-06-10T03:53:08;10.65;;;9.65;;
80891;SDS011;70343;51.530;5.050;2023-06-10T03:55:34;11.32;;;9.65;;
80891;SDS011;70343;51.530;5.050;2023-06-10T03:58:00;10.45;;;9.15;;
80891;SDS011;70343;51.530;5.050;2023-06-10T04:00:25;10.27;;;9.32;;
80891;SDS011;70343;51.530;5.050;2023-06-10T04:02:51;10.95;;;9.95;;
80891;SDS011;70343;51.530;5.050;2023-06-10T04:05:43;12.30;;;11.15;;
80891;SDS011;70343;51.530;5.050;2023-06-10T04:08:08;9.77;;;8.88;;
80891;SDS011;70343;51.530;5.050;2023-06-10T04:10:34;11.07;;;9.48;;
80891;SDS011;70343;51.530;5.050;2023-06-10T04:13:00;10.10;;;9.10;;
80891;SDS011;70343;51.530;5.050;2023-06-10T04:15:30;12.27;;;10.98;;
80891;SDS011;70343;51.530;5.050;2023-06-10T04:17:58;11.35;;;10.27;;
80891;SDS011;70343;51.530;5.050;2023-06-10T04:20:25;12.35;;;11.23;;
80891;SDS011;70343;51.530;5.050;2023-06-10T04:22:51;13.27;;;10.15;;
80891;SDS011;70343;51.530;5.050;2023-06-10T04:25:18;11.98;;;10.82;;
80891;SDS011;70343;51.530;5.050;2023-06-10T04:27:44;12.77;;;11.55;;
80891;SDS011;70343;51.530;5.050;2023-06-10T04:30:10;11.23;;;10.23;;
80891;SDS011;70343;51.530;5.050;2023-06-10T04:32:37;12.18;;;10.68;;
80891;SDS011;70343;51.530;5.050;2023-06-10T04:35:05;12.45;;;11.05;;
80891;SDS011;70343;51.530;5.050;2023-06-10T04:37:31;11.55;;;10.35;;
80891;SDS011;70343;51.530;5.050;2023-06-10T04:39:57;11.65;;;10.63;;
80891;SDS011;70343;51.530;5.050;2023-06-10T04:42:24;11.57;;;10.10;;
80891;SDS011;70343;51.530;5.050;2023-06-10T04:44:50;10.55;;;9.48;;
80891;SDS011;70343;51.530;5.050;2023-06-10T04:47:15;11.57;;;10.48;;
80891;SDS011;70343;51.530;5.050;2023-06-10T04:49:44;10.82;;;9.77;;
80891;SDS011;70343;51.530;5.050;2023-06-10T04:52:09;10.45;;;9.52;;
80891;SDS011;70343;51.530;5.050;2023-06-10T04:54:38;12.00;;;10.88;;
80891;SDS011;70343;51.530;5.050;2023-06-10T04:57:04;10.63;;;9.52;;
80891;SDS011;70343;51.530;5.050;2023-06-10T04:59:31;14.23;;;10.15;;
80891;SDS011;70343;51.530;5.050;2023-06-10T05:01:56;12.32;;;11.13;;
80891;SDS011;70343;51.530;5.050;2023-06-10T05:04:22;11.10;;;9.93;;
80891;SDS011;70343;51.530;5.050;2023-06-10T05:06:47;11.95;;;10.70;;
80891;SDS011;70343;51.530;5.050;2023-06-10T05:09:13;11.15;;;10.00;;
80891;SDS011;70343;51.530;5.050;2023-06-10T05:11:38;11.15;;;9.15;;
80891;SDS011;70343;51.530;5.050;2023-06-10T05:14:04;11.45;;;10.35;;
80891;SDS011;70343;51.530;5.050;2023-06-10T05:16:30;10.52;;;9.52;;
80891;SDS011;70343;51.530;5.050;2023-06-10T05:18:55;12.75;;;11.55;;
80891;SDS011;70343;51.530;5.050;2023-06-10T05:21:21;12.15;;;10.95;;
80891;SDS011;70343;51.530;5.050;2023-06-10T05:23:46;10.77;;;9.68;;
80891;SDS011;70343;51.530;5.050;2023-06-10T05:26:12;13.35;;;10.70;;
80891;SDS011;70343;51.530;5.050;2023-06-10T05:28:37;11.85;;;10.70;;
80891;SDS011;70343;51.530;5.050;2023-06-10T05:31:03;12.45;;;11.25;;
80891;SDS011;70343;51.530;5.050;2023-06-10T05:33:28;12.32;;;9.93;;
80891;SDS011;70343;51.530;5.050;2023-06-10T05:35:54;10.88;;;9.57;;
80891;SDS011;70343;51.530;5.050;2023-06-10T05:38:20;12.75;;;10.60;;
80891;SDS011;70343;51.530;5.050;2023-06-10T05:40:45;10.65;;;9.75;;
80891;SDS011;70343;51.530;5.050;2023-06-10T05:43:11;12.70;;;10.02;;
80891;SDS011;70343;51.530;5.050;2023-06-10T05:45:37;10.93;;;9.93;;
80891;SDS011;70343;51.530;5.050;2023-06-10T05:48:03;11.07;;;9.52;;
80891;SDS011;70343;51.530;5.050;2023-06-10T05:50:29;11.30;;;10.30;;
80891;SDS011;70343;51.530;5.050;2023-06-10T05:52:54;11.32;;;9.93;;
80891;SDS011;70343;51.530;5.050;2023-06-10T05:55:20;11.27;;;10.27;;
80891;SDS011;70343;51.530;5.050;2023-06-10T05:57:46;11.57;;;10.57;;
80891;SDS011;70343;51.530;5.050;2023-06-10T06:00:12;9.35;;;8.38;;
80891;SDS011;70343;51.530;5.050;2023-06-10T06:02:38;11.80;;;10.63;;
80891;SDS011;70343;51.530;5.050;2023-06-10T06:05:04;12.07;;;10.90;;
80891;SDS011;70343;51.530;5.050;2023-06-10T06:07:32;11.52;;;10.43;;
80891;SDS011;70343;51.530;5.050;2023-06-10T06:09:58;11.63;;;10.55;;
80891;SDS011;70343;51.530;5.050;2023-06-10T06:12:23;10.43;;;9.43;;
80891;SDS011;70343;51.530;5.050;2023-06-10T06:14:49;10.90;;;10.00;;
80891;SDS011;70343;51.530;5.050;2023-06-10T06:17:14;10.23;;;9.18;;
80891;SDS011;70343;51.530;5.050;2023-06-10T06:19:40;10.98;;;9.88;;
80891;SDS011;70343;51.530;5.050;2023-06-10T06:22:05;10.27;;;9.27;;
80891;SDS011;70343;51.530;5.050;2023-06-10T06:24:31;10.75;;;9.13;;
80891;SDS011;70343;51.530;5.050;2023-06-10T06:26:56;13.02;;;9.40;;
80891;SDS011;70343;51.530;5.050;2023-06-10T06:29:22;11.43;;;10.40;;
80891;SDS011;70343;51.530;5.050;2023-06-10T06:31:47;10.55;;;9.65;;
80891;SDS011;70343;51.530;5.050;2023-06-10T06:34:13;11.13;;;10.02;;
80891;SDS011;70343;51.530;5.050;2023-06-10T06:36:38;10.88;;;9.77;;
80891;SDS011;70343;51.530;5.050;2023-06-10T06:39:04;12.18;;;9.85;;
80891;SDS011;70343;51.530;5.050;2023-06-10T06:41:30;11.10;;;10.05;;
80891;SDS011;70343;51.530;5.050;2023-06-10T06:43:55;10.27;;;9.10;;
80891;SDS011;70343;51.530;5.050;2023-06-10T06:46:29;10.45;;;9.55;;
80891;SDS011;70343;51.530;5.050;2023-06-10T06:48:54;11.32;;;10.15;;
80891;SDS011;70343;51.530;5.050;2023-06-10T06:51:20;11.38;;;10.13;;
80891;SDS011;70343;51.530;5.050;2023-06-10T06:53:45;13.45;;;10.65;;
80891;SDS011;70343;51.530;5.050;2023-06-10T06:56:11;11.00;;;9.95;;
80891;SDS011;70343;51.530;5.050;2023-06-10T06:58:37;10.48;;;9.48;;
80891;SDS011;70343;51.530;5.050;2023-06-10T07:01:03;10.57;;;9.27;;
80891;SDS011;70343;51.530;5.050;2023-06-10T07:03:28;10.52;;;9.50;;
80891;SDS011;70343;51.530;5.050;2023-06-10T07:05:54;10.63;;;9.52;;
80891;SDS011;70343;51.530;5.050;2023-06-10T07:08:19;10.73;;;9.27;;
80891;SDS011;70343;51.530;5.050;2023-06-10T07:10:45;10.55;;;9.57;;
80891;SDS011;70343;51.530;5.050;2023-06-10T07:13:10;9.65;;;8.73;;
80891;SDS011;70343;51.530;5.050;2023-06-10T07:15:36;10.75;;;9.65;;
80891;SDS011;70343;51.530;5.050;2023-06-10T07:18:03;10.13;;;9.10;;
80891;SDS011;70343;51.530;5.050;2023-06-10T07:20:29;10.50;;;9.38;;
80891;SDS011;70343;51.530;5.050;2023-06-10T07:22:54;10.40;;;9.35;;
80891;SDS011;70343;51.530;5.050;2023-06-10T07:25:20;10.45;;;9.35;;
80891;SDS011;70343;51.530;5.050;2023-06-10T07:27:46;10.15;;;9.05;;
80891;SDS011;70343;51.530;5.050;2023-06-10T07:30:11;11.07;;;9.95;;
80891;SDS011;70343;51.530;5.050;2023-06-10T07:32:37;10.23;;;9.23;;
80891;SDS011;70343;51.530;5.050;2023-06-10T07:35:03;9.57;;;8.63;;
80891;SDS011;70343;51.530;5.050;2023-06-10T07:37:31;10.07;;;9.15;;
80891;SDS011;70343;51.530;5.050;2023-06-10T07:39:57;11.02;;;9.32;;
80891;SDS011;70343;51.530;5.050;2023-06-10T07:42:22;10.65;;;9.55;;
80891;SDS011;70343;51.530;5.050;2023-06-10T07:44:48;11.45;;;10.05;;
80891;SDS011;70343;51.530;5.050;2023-06-10T07:47:13;10.25;;;9.25;;
80891;SDS011;70343;51.530;5.050;2023-06-10T07:49:39;11.13;;;9.73;;
80891;SDS011;70343;51.530;5.050;2023-06-10T07:52:06;10.15;;;9.25;;
80891;SDS011;70343;51.530;5.050;2023-06-10T07:54:32;10.40;;;8.93;;
80891;SDS011;70343;51.530;5.050;2023-06-10T07:56:57;10.15;;;9.15;;
80891;SDS011;70343;51.530;5.050;2023-06-10T07:59:22;10.57;;;8.40;;
80891;SDS011;70343;51.530;5.050;2023-06-10T08:01:48;9.57;;;8.35;;
80891;SDS011;70343;51.530;5.050;2023-06-10T08:04:13;12.77;;;9.52;;
80891;SDS011;70343;51.530;5.050;2023-06-10T08:06:39;10.25;;;9.15;;
80891;SDS011;70343;51.530;5.050;2023-06-10T08:09:04;9.63;;;8.73;;
80891;SDS011;70343;51.530;5.050;2023-06-10T08:11:30;9.50;;;8.60;;
80891;SDS011;70343;51.530;5.050;2023-06-10T08:13:56;12.65;;;8.25;;
80891;SDS011;70343;51.530;5.050;2023-06-10T08:16:21;9.75;;;8.85;;
80891;SDS011;70343;51.530;5.050;2023-06-10T08:18:47;8.63;;;7.50;;
80891;SDS011;70343;51.530;5.050;2023-06-10T08:21:12;11.52;;;9.05;;
80891;SDS011;70343;51.530;5.050;2023-06-10T08:23:38;10.63;;;8.35;;
80891;SDS011;70343;51.530;5.050;2023-06-10T08:26:04;12.15;;;8.35;;
80891;SDS011;70343;51.530;5.050;2023-06-10T08:28:29;8.88;;;7.93;;
80891;SDS011;70343;51.530;5.050;2023-06-10T08:30:55;8.40;;;7.60;;
80891;SDS011;70343;51.530;5.050;2023-06-10T08:33:20;9.43;;;8.52;;
80891;SDS011;70343;51.530;5.050;2023-06-10T08:35:46;10.32;;;8.32;;
80891;SDS011;70343;51.530;5.050;2023-06-10T08:38:11;9.25;;;7.60;;
80891;SDS011;70343;51.530;5.050;2023-06-10T08:40:37;9.75;;;8.93;;
80891;SDS011;70343;51.530;5.050;2023-06-10T08:43:06;9.65;;;8.20;;
80891;SDS011;70343;51.530;5.050;2023-06-10T08:45:34;9.25;;;8.25;;
80891;SDS011;70343;51.530;5.050;2023-06-10T08:50:29;8.63;;;7.78;;
80891;SDS011;70343;51.530;5.050;2023-06-10T08:52:57;11.18;;;8.02;;
80891;SDS011;70343;51.530;5.050;2023-06-10T08:55:26;10.63;;;7.75;;
80891;SDS011;70343;51.530;5.050;2023-06-10T08:57:55;9.15;;;8.15;;
80891;SDS011;70343;51.530;5.050;2023-06-10T09:00:21;9.38;;;8.10;;
80891;SDS011;70343;51.530;5.050;2023-06-10T09:02:47;8.55;;;7.65;;
80891;SDS011;70343;51.530;5.050;2023-06-10T09:05:13;8.85;;;7.97;;
80891;SDS011;70343;51.530;5.050;2023-06-10T09:07:40;8.25;;;7.45;;
80891;SDS011;70343;51.530;5.050;2023-06-10T09:10:06;10.82;;;7.70;;
80891;SDS011;70343;51.530;5.050;2023-06-10T09:12:35;8.75;;;8.05;;
80891;SDS011;70343;51.530;5.050;2023-06-10T09:15:03;9.40;;;8.23;;
80891;SDS011;70343;51.530;5.050;2023-06-10T09:17:29;10.43;;;6.78;;
80891;SDS011;70343;51.530;5.050;2023-06-10T09:19:55;8.40;;;7.38;;
80891;SDS011;70343;51.530;5.050;2023-06-10T09:22:22;8.35;;;6.95;;
80891;SDS011;70343;51.530;5.050;2023-06-10T09:24:49;11.00;;;7.43;;
80891;SDS011;70343;51.530;5.050;2023-06-10T09:27:15;7.22;;;6.53;;
80891;SDS011;70343;51.530;5.050;2023-06-10T09:29:52;8.30;;;6.70;;
80891;SDS011;70343;51.530;5.050;2023-06-10T09:32:19;7.88;;;6.43;;
80891;SDS011;70343;51.530;5.050;2023-06-10T09:34:45;8.32;;;7.40;;
80891;SDS011;70343;51.530;5.050;2023-06-10T09:37:11;7.72;;;7.03;;
80891;SDS011;70343;51.530;5.050;2023-06-10T09:39:39;7.85;;;7.05;;
80891;SDS011;70343;51.530;5.050;2023-06-10T09:42:26;6.82;;;6.25;;
80891;SDS011;70343;51.530;5.050;2023-06-10T09:44:51;8.52;;;6.78;;
80891;SDS011;70343;51.530;5.050;2023-06-10T09:47:20;9.07;;;7.57;;
80891;SDS011;70343;51.530;5.050;2023-06-10T09:49:48;9.55;;;7.40;;
80891;SDS011;70343;51.530;5.050;2023-06-10T09:52:25;7.03;;;6.43;;
80891;SDS011;70343;51.530;5.050;2023-06-10T09:54:52;9.30;;;7.47;;
80891;SDS011;70343;51.530;5.050;2023-06-10T09:57:19;10.18;;;7.00;;
80891;SDS011;70343;51.530;5.050;2023-06-10T10:02:15;7.57;;;6.53;;
80891;SDS011;70343;51.530;5.050;2023-06-10T10:04:41;8.35;;;6.80;;
80891;SDS011;70343;51.530;5.050;2023-06-10T10:07:08;6.97;;;6.28;;
80891;SDS011;70343;51.530;5.050;2023-06-10T10:09:38;8.45;;;7.63;;
80891;SDS011;70343;51.530;5.050;2023-06-10T10:12:09;8.48;;;7.68;;
80891;SDS011;70343;51.530;5.050;2023-06-10T10:14:39;8.32;;;6.45;;
80891;SDS011;70343;51.530;5.050;2023-06-10T10:17:09;8.73;;;6.90;;
80891;SDS011;70343;51.530;5.050;2023-06-10T10:19:58;7.28;;;6.38;;
80891;SDS011;70343;51.530;5.050;2023-06-10T10:22:31;6.95;;;6.22;;
80891;SDS011;70343;51.530;5.050;2023-06-10T10:25:02;8.10;;;6.25;;
80891;SDS011;70343;51.530;5.050;2023-06-10T10:27:43;8.35;;;6.28;;
80891;SDS011;70343;51.530;5.050;2023-06-10T10:30:12;7.35;;;6.68;;
80891;SDS011;70343;51.530;5.050;2023-06-10T10:32:51;7.95;;;7.18;;
80891;SDS011;70343;51.530;5.050;2023-06-10T10:35:22;9.15;;;6.60;;
80891;SDS011;70343;51.530;5.050;2023-06-10T10:37:48;7.38;;;6.68;;
80891;SDS011;70343;51.530;5.050;2023-06-10T10:40:17;7.65;;;6.93;;
80891;SDS011;70343;51.530;5.050;2023-06-10T10:42:43;9.98;;;6.60;;
80891;SDS011;70343;51.530;5.050;2023-06-10T10:45:09;7.32;;;6.65;;
80891;SDS011;70343;51.530;5.050;2023-06-10T10:47:36;7.22;;;6.25;;
80891;SDS011;70343;51.530;5.050;2023-06-10T10:50:03;7.68;;;6.60;;
80891;SDS011;70343;51.530;5.050;2023-06-10T10:55:17;7.00;;;6.25;;
80891;SDS011;70343;51.530;5.050;2023-06-10T10:57:43;8.45;;;6.40;;
80891;SDS011;70343;51.530;5.050;2023-06-10T11:00:09;7.45;;;6.75;;
80891;SDS011;70343;51.530;5.050;2023-06-10T11:02:44;7.25;;;6.20;;
80891;SDS011;70343;51.530;5.050;2023-06-10T11:05:12;8.20;;;6.57;;
80891;SDS011;70343;51.530;5.050;2023-06-10T11:07:39;6.63;;;6.03;;
80891;SDS011;70343;51.530;5.050;2023-06-10T11:10:09;7.07;;;6.35;;
80891;SDS011;70343;51.530;5.050;2023-06-10T11:15:11;7.90;;;6.03;;
80891;SDS011;70343;51.530;5.050;2023-06-10T11:17:37;7.15;;;6.55;;
80891;SDS011;70343;51.530;5.050;2023-06-10T11:20:03;7.03;;;6.05;;
80891;SDS011;70343;51.530;5.050;2023-06-10T11:22:29;7.25;;;6.55;;
80891;SDS011;70343;51.530;5.050;2023-06-10T11:24:54;6.40;;;5.80;;
80891;SDS011;70343;51.530;5.050;2023-06-10T11:27:21;7.55;;;6.10;;
80891;SDS011;70343;51.530;5.050;2023-06-10T11:29:56;7.28;;;6.53;;
80891;SDS011;70343;51.530;5.050;2023-06-10T11:32:23;7.38;;;6.32;;
80891;SDS011;70343;51.530;5.050;2023-06-10T11:34:54;9.90;;;6.32;;
80891;SDS011;70343;51.530;5.050;2023-06-10T11:37:20;7.30;;;6.60;;
80891;SDS011;70343;51.530;5.050;2023-06-10T11:39:46;7.47;;;6.78;;
80891;SDS011;70343;51.530;5.050;2023-06-10T11:42:12;6.72;;;6.13;;
80891;SDS011;70343;51.530;5.050;2023-06-10T11:44:37;6.65;;;6.05;;
80891;SDS011;70343;51.530;5.050;2023-06-10T11:47:03;7.13;;;6.45;;
80891;SDS011;70343;51.530;5.050;2023-06-10T11:49:29;7.78;;;7.07;;
80891;SDS011;70343;51.530;5.050;2023-06-10T11:51:54;7.50;;;6.40;;
80891;SDS011;70343;51.530;5.050;2023-06-10T11:54:21;7.28;;;6.55;;
80891;SDS011;70343;51.530;5.050;2023-06-10T11:56:47;7.38;;;6.68;;
80891;SDS011;70343;51.530;5.050;2023-06-10T11:59:13;7.65;;;6.88;;
80891;SDS011;70343;51.530;5.050;2023-06-10T12:01:43;8.02;;;7.05;;
80891;SDS011;70343;51.530;5.050;2023-06-10T12:04:11;7.57;;;6.82;;
80891;SDS011;70343;51.530;5.050;2023-06-10T12:06:59;7.65;;;7.05;;
80891;SDS011;70343;51.530;5.050;2023-06-10T12:09:24;7.18;;;6.53;;
80891;SDS011;70343;51.530;5.050;2023-06-10T12:11:57;7.90;;;7.20;;
80891;SDS011;70343;51.530;5.050;2023-06-10T12:20:05;6.95;;;6.22;;
80891;SDS011;70343;51.530;5.050;2023-06-10T12:22:40;7.57;;;6.68;;
80891;SDS011;70343;51.530;5.050;2023-06-10T12:25:08;7.60;;;6.85;;
80891;SDS011;70343;51.530;5.050;2023-06-10T12:27:34;7.63;;;6.25;;
80891;SDS011;70343;51.530;5.050;2023-06-10T12:30:02;7.82;;;7.13;;
80891;SDS011;70343;51.530;5.050;2023-06-10T12:32:37;8.30;;;6.93;;
80891;SDS011;70343;51.530;5.050;2023-06-10T12:35:05;7.72;;;7.03;;
80891;SDS011;70343;51.530;5.050;2023-06-10T12:37:32;6.90;;;6.30;;
80891;SDS011;70343;51.530;5.050;2023-06-10T12:40:02;9.55;;;7.50;;
80891;SDS011;70343;51.530;5.050;2023-06-10T12:42:31;9.35;;;6.65;;
80891;SDS011;70343;51.530;5.050;2023-06-10T12:44:58;7.25;;;6.65;;
80891;SDS011;70343;51.530;5.050;2023-06-10T12:47:33;8.68;;;6.57;;
80891;SDS011;70343;51.530;5.050;2023-06-10T12:50:00;8.93;;;6.65;;
80891;SDS011;70343;51.530;5.050;2023-06-10T12:52:27;7.90;;;7.00;;
80891;SDS011;70343;51.530;5.050;2023-06-10T12:54:53;7.28;;;6.68;;
80891;SDS011;70343;51.530;5.050;2023-06-10T12:57:20;7.22;;;6.60;;
80891;SDS011;70343;51.530;5.050;2023-06-10T12:59:46;8.43;;;6.75;;
80891;SDS011;70343;51.530;5.050;2023-06-10T13:02:17;7.30;;;6.60;;
80891;SDS011;70343;51.530;5.050;2023-06-10T13:04:46;8.32;;;6.68;;
80891;SDS011;70343;51.530;5.050;2023-06-10T13:07:11;7.13;;;6.53;;
80891;SDS011;70343;51.530;5.050;2023-06-10T13:09:37;8.10;;;7.30;;
80891;SDS011;70343;51.530;5.050;2023-06-10T13:12:03;7.93;;;6.18;;
80891;SDS011;70343;51.530;5.050;2023-06-10T13:14:30;7.35;;;6.43;;
80891;SDS011;70343;51.530;5.050;2023-06-10T13:16:55;7.18;;;6.60;;
80891;SDS011;70343;51.530;5.050;2023-06-10T13:19:21;7.40;;;6.68;;
80891;SDS011;70343;51.530;5.050;2023-06-10T13:21:49;7.53;;;6.82;;
80891;SDS011;70343;51.530;5.050;2023-06-10T13:24:15;8.45;;;7.05;;
80891;SDS011;70343;51.530;5.050;2023-06-10T13:26:40;8.02;;;7.00;;
80891;SDS011;70343;51.530;5.050;2023-06-10T13:29:06;7.88;;;6.82;;
80891;SDS011;70343;51.530;5.050;2023-06-10T13:31:33;7.15;;;6.55;;
80891;SDS011;70343;51.530;5.050;2023-06-10T13:33:59;6.85;;;6.30;;
80891;SDS011;70343;51.530;5.050;2023-06-10T13:36:24;7.07;;;6.50;;
80891;SDS011;70343;51.530;5.050;2023-06-10T13:38:50;7.00;;;6.40;;
80891;SDS011;70343;51.530;5.050;2023-06-10T13:41:15;6.43;;;5.88;;
80891;SDS011;70343;51.530;5.050;2023-06-10T13:43:41;6.88;;;6.22;;
80891;SDS011;70343;51.530;5.050;2023-06-10T13:46:07;7.50;;;6.90;;
80891;SDS011;70343;51.530;5.050;2023-06-10T13:48:32;8.30;;;7.10;;
80891;SDS011;70343;51.530;5.050;2023-06-10T13:50:58;7.38;;;6.60;;
80891;SDS011;70343;51.530;5.050;2023-06-10T13:53:25;7.28;;;6.68;;
80891;SDS011;70343;51.530;5.050;2023-06-10T13:55:50;7.43;;;6.70;;
80891;SDS011;70343;51.530;5.050;2023-06-10T13:58:16;6.90;;;6.30;;
80891;SDS011;70343;51.530;5.050;2023-06-10T14:00:42;7.32;;;6.65;;
80891;SDS011;70343;51.530;5.050;2023-06-10T14:03:07;7.00;;;6.30;;
80891;SDS011;70343;51.530;5.050;2023-06-10T14:05:33;7.43;;;6.18;;
80891;SDS011;70343;51.530;5.050;2023-06-10T14:07:59;7.35;;;6.65;;
80891;SDS011;70343;51.530;5.050;2023-06-10T14:10:25;8.38;;;7.13;;
80891;SDS011;70343;51.530;5.050;2023-06-10T14:12:51;8.05;;;6.03;;
80891;SDS011;70343;51.530;5.050;2023-06-10T14:15:16;7.38;;;6.65;;
80891;SDS011;70343;51.530;5.050;2023-06-10T14:17:42;7.22;;;6.53;;
80891;SDS011;70343;51.530;5.050;2023-06-10T14:20:07;8.27;;;7.43;;
80891;SDS011;70343;51.530;5.050;2023-06-10T14:22:33;8.45;;;6.13;;
80891;SDS011;70343;51.530;5.050;2023-06-10T14:24:59;7.18;;;6.47;;
80891;SDS011;70343;51.530;5.050;2023-06-10T14:27:24;7.35;;;6.43;;
80891;SDS011;70343;51.530;5.050;2023-06-10T14:29:50;6.93;;;6.32;;
80891;SDS011;70343;51.530;5.050;2023-06-10T14:32:15;6.78;;;6.28;;
80891;SDS011;70343;51.530;5.050;2023-06-10T14:34:41;7.03;;;6.28;;
80891;SDS011;70343;51.530;5.050;2023-06-10T14:37:07;6.78;;;6.15;;
80891;SDS011;70343;51.530;5.050;2023-06-10T14:39:33;7.07;;;6.47;;
80891;SDS011;70343;51.530;5.050;2023-06-10T14:41:58;7.38;;;6.68;;
80891;SDS011;70343;51.530;5.050;2023-06-10T14:44:24;6.78;;;6.05;;
80891;SDS011;70343;51.530;5.050;2023-06-10T14:46:49;6.93;;;6.32;;
80891;SDS011;70343;51.530;5.050;2023-06-10T14:49:15;7.00;;;6.40;;
80891;SDS011;70343;51.530;5.050;2023-06-10T14:51:40;8.65;;;6.50;;
80891;SDS011;70343;51.530;5.050;2023-06-10T14:54:06;7.18;;;6.45;;
80891;SDS011;70343;51.530;5.050;2023-06-10T14:56:31;7.75;;;6.97;;
80891;SDS011;70343;51.530;5.050;2023-06-10T14:58:57;7.30;;;6.50;;
80891;SDS011;70343;51.530;5.050;2023-06-10T15:01:22;7.15;;;6.47;;
80891;SDS011;70343;51.530;5.050;2023-06-10T15:03:48;7.97;;;7.05;;
80891;SDS011;70343;51.530;5.050;2023-06-10T15:06:13;6.63;;;6.03;;